Time;durP1;ratioP1;P1;durP2;ratioP2;P2;SDS_P1;SDS_P2;PMS_P1;PMS_P2;Temp;Humidity;BMP_temperature;BMP_pressure;BME280_temperature;BME280_humidity;BME280_pressure;Samples;Min_cycle;Max_cycle;Signal;HPM_P1;HPM_P2
2021/04/09 00:01:57;;;;;;;4.36;2.51;;;;;;;0.24;69.67;99645.25;2037439;79;20375;-82
2021/04/09 00:04:58;;;;;;;6.44;2.78;;;;;;;0.19;69.81;99645.09;2035462;79;20368;-82
2021/04/09 00:08:01;;;;;;;4.26;2.13;;;;;;;0.18;70.09;99639.88;2037170;79;20307;-81
2021/04/09 00:11:03;;;;;;;3.55;2.51;;;;;;;0.18;70.34;99634.78;2034831;79;20307;-82
2021/04/09 00:14:06;;;;;;;4.39;1.85;;;;;;;0.13;70.10;99637.16;2035340;79;20350;-82
2021/04/09 00:17:08;;;;;;;4.60;1.95;;;;;;;0.12;70.00;99632.00;2035346;77;24707;-83
2021/04/09 00:20:16;;;;;;;4.04;1.95;;;;;;;0.07;69.99;99639.47;2035604;79;20336;-82
2021/04/09 00:23:18;;;;;;;4.25;2.09;;;;;;;0.01;70.23;99628.16;2033765;79;20333;-81
2021/04/09 00:26:20;;;;;;;4.31;2.67;;;;;;;-0.03;70.39;99630.56;2035466;79;20200;-82
2021/04/09 00:29:22;;;;;;;4.15;2.10;;;;;;;-0.08;70.66;99628.63;2034335;79;20335;-80
2021/04/09 00:32:23;;;;;;;2.66;1.86;;;;;;;-0.11;70.59;99624.28;2036885;77;20461;-82
2021/04/09 00:35:25;;;;;;;3.16;2.01;;;;;;;-0.14;70.30;99621.59;2028255;79;20348;-80
2021/04/09 00:38:27;;;;;;;2.84;1.63;;;;;;;-0.18;70.37;99614.63;2029175;80;20407;-83
2021/04/09 00:41:29;;;;;;;2.89;2.04;;;;;;;-0.23;70.44;99611.00;2032734;80;20324;-82
2021/04/09 00:44:31;;;;;;;2.17;1.74;;;;;;;-0.25;70.26;99607.50;2029732;80;20348;-82
2021/04/09 00:47:33;;;;;;;2.05;1.59;;;;;;;-0.22;70.38;99614.41;2031316;77;23196;-81
2021/04/09 00:50:37;;;;;;;2.13;1.61;;;;;;;-0.24;70.46;99610.94;2031051;80;20316;-82
2021/04/09 00:53:41;;;;;;;2.64;1.65;;;;;;;-0.32;70.49;99608.06;2030181;80;20336;-83
2021/04/09 00:56:43;;;;;;;2.81;1.85;;;;;;;-0.36;70.35;99603.63;2029724;80;20312;-82
2021/04/09 00:59:45;;;;;;;4.63;1.98;;;;;;;-0.41;70.33;99603.44;2034276;80;20327;-81
2021/04/09 01:02:47;;;;;;;3.04;2.05;;;;;;;-0.46;70.59;99589.63;2030443;77;24852;-82
2021/04/09 01:05:52;;;;;;;1.85;1.52;;;;;;;-0.49;70.83;99588.63;2029165;80;20320;-82
2021/04/09 01:08:54;;;;;;;3.05;1.58;;;;;;;-0.53;70.96;99587.63;2030373;80;20360;-82
2021/04/09 01:11:55;;;;;;;3.34;1.92;;;;;;;-0.53;70.97;99592.75;2029262;80;20331;-81
2021/04/09 01:14:57;;;;;;;3.09;1.79;;;;;;;-0.54;70.90;99587.53;2032995;80;20327;-81
2021/04/09 01:18:05;;;;;;;2.72;1.94;;;;;;;-0.56;70.94;99579.84;2031995;77;20822;-82
2021/04/09 01:21:26;;;;;;;2.24;1.65;;;;;;;-0.60;71.14;99577.97;2032236;80;20349;-82
2021/04/09 01:25:04;;;;;;;4.45;1.83;;;;;;;-0.61;71.09;99583.88;2030301;80;20315;-83
2021/04/09 01:28:21;;;;;;;3.10;1.98;;;;;;;-0.62;71.14;99582.13;2030771;80;20349;-82
2021/04/09 01:31:36;;;;;;;4.39;1.80;;;;;;;-0.69;71.94;99572.50;2019682;77;22686;-82
2021/04/09 01:34:43;;;;;;;2.40;1.75;;;;;;;-0.71;71.62;99584.31;2010687;80;20219;-82
2021/04/09 01:37:53;;;;;;;3.95;2.00;;;;;;;-0.75;71.94;99569.66;2013801;80;20365;-82
2021/04/09 01:40:57;;;;;;;4.21;1.85;;;;;;;-0.82;72.34;99568.53;2013800;80;20341;-83
2021/04/09 01:44:01;;;;;;;3.77;2.02;;;;;;;-0.88;72.77;99572.50;2013803;80;20366;-83
2021/04/09 01:47:04;;;;;;;2.99;1.98;;;;;;;-0.89;72.74;99569.09;2011972;78;21221;-82
2021/04/09 01:50:10;;;;;;;4.47;2.22;;;;;;;-0.91;72.58;99566.44;2017206;80;20354;-82
2021/04/09 01:53:14;;;;;;;1.86;1.71;;;;;;;-0.91;71.95;99570.66;2015345;80;20375;-82
2021/04/09 01:56:17;;;;;;;5.50;2.01;;;;;;;-0.92;71.66;99563.81;2015349;80;20454;-81
2021/04/09 01:59:20;;;;;;;4.57;2.17;;;;;;;-0.92;71.71;99563.81;2015815;80;20328;-83
2021/04/09 02:02:23;;;;;;;2.69;1.90;;;;;;;-0.93;72.02;99557.00;2015313;79;23135;-83
2021/04/09 02:05:28;;;;;;;3.44;1.86;;;;;;;-0.96;72.28;99556.84;2015249;80;20353;-81
2021/04/09 02:08:32;;;;;;;4.30;1.81;;;;;;;-0.97;72.27;99548.34;2014789;80;20303;-82
2021/04/09 02:11:35;;;;;;;2.50;1.80;;;;;;;-1.00;72.24;99543.13;2015722;80;20348;-82
2021/04/09 02:14:38;;;;;;;3.09;2.03;;;;;;;-1.03;72.63;99553.19;2014057;80;20721;-82
2021/04/09 02:17:40;;;;;;;3.33;2.08;;;;;;;-1.05;72.50;99548.81;2013767;78;20512;-82
2021/04/09 02:20:42;;;;;;;3.24;2.26;;;;;;;-1.06;72.37;99540.31;2016584;80;20341;-83
2021/04/09 02:23:44;;;;;;;5.20;2.03;;;;;;;-1.05;71.96;99543.72;2015734;80;20323;-82
2021/04/09 02:26:45;;;;;;;3.74;2.17;;;;;;;-1.03;72.21;99542.13;2016399;80;20365;-83
2021/04/09 02:29:47;;;;;;;4.30;2.39;;;;;;;-1.00;72.25;99539.69;2014153;80;20356;-83
2021/04/09 02:32:50;;;;;;;3.36;2.19;;;;;;;-1.00;72.35;99529.50;2017031;78;20552;-81
2021/04/09 02:35:52;;;;;;;2.20;2.00;;;;;;;-1.00;72.57;99524.41;2015345;80;20349;-82
2021/04/09 02:39:00;;;;;;;3.60;2.49;;;;;;;-1.05;72.96;99516.56;2015112;80;20356;-82
2021/04/09 02:42:08;;;;;;;2.41;2.08;;;;;;;-1.05;73.40;99528.44;2014884;80;20363;-83
2021/04/09 02:45:11;;;;;;;3.66;2.46;;;;;;;-1.03;73.57;99522.59;2012252;80;20319;-81
2021/04/09 02:48:14;;;;;;;4.11;2.50;;;;;;;-1.09;73.43;99518.91;2015059;80;20347;-81
2021/04/09 02:51:16;;;;;;;4.28;2.24;;;;;;;-1.09;73.70;99513.81;2015019;80;20169;-81
2021/04/09 02:54:19;;;;;;;3.67;2.58;;;;;;;-1.12;73.74;99517.09;2014965;80;20410;-82
2021/04/09 02:57:27;;;;;;;2.10;1.91;;;;;;;-1.12;73.48;99506.91;2014340;80;20412;-83
2021/04/09 03:00:29;;;;;;;3.50;2.32;;;;;;;-1.11;73.44;99503.56;2015499;78;23324;-83
2021/04/09 03:03:31;;;;;;;3.65;2.50;;;;;;;-1.12;73.32;99493.28;2010396;81;20253;-83
2021/04/09 03:06:36;;;;;;;2.64;2.25;;;;;;;-1.15;73.49;99496.59;2011057;81;20330;-84
2021/04/09 03:09:38;;;;;;;3.65;2.72;;;;;;;-1.10;73.46;99500.19;2011110;81;20340;-82
2021/04/09 03:12:41;;;;;;;3.40;2.31;;;;;;;-1.07;73.42;99489.28;2008360;81;20313;-82
2021/04/09 03:15:50;;;;;;;4.05;2.29;;;;;;;-1.11;73.51;99489.94;2006834;78;20674;-82
2021/04/09 03:18:52;;;;;;;4.01;2.70;;;;;;;-1.17;73.68;99492.22;2007639;81;20369;-82
2021/04/09 03:21:53;;;;;;;3.44;2.51;;;;;;;-1.24;73.68;99499.63;2009369;81;20174;-82
2021/04/09 03:24:55;;;;;;;4.30;2.21;;;;;;;-1.22;73.69;99492.91;2009637;81;20223;-82
2021/04/09 03:27:57;;;;;;;2.70;2.50;;;;;;;-1.19;73.60;99497.25;2008058;81;20344;-82
2021/04/09 03:30:59;;;;;;;4.21;2.55;;;;;;;-1.16;73.30;99496.53;2008207;81;20332;-82
2021/04/09 03:34:01;;;;;;;3.03;2.79;;;;;;;-1.11;73.68;99505.22;2010190;80;20324;-82
2021/04/09 03:37:02;;;;;;;4.56;2.55;;;;;;;-1.10;73.75;99499.31;2006966;81;20321;-81
2021/04/09 03:40:05;;;;;;;5.50;2.59;;;;;;;-1.12;73.42;99508.59;2008421;81;20332;-82
2021/04/09 03:43:09;;;;;;;3.93;2.67;;;;;;;-1.16;73.60;99504.16;2008489;80;20334;-83
2021/04/09 03:46:11;;;;;;;3.52;2.78;;;;;;;-1.22;73.87;99503.09;2009406;81;20229;-81
2021/04/09 03:49:13;;;;;;;3.11;2.56;;;;;;;-1.23;74.10;99492.84;2010712;81;20206;-81
2021/04/09 03:52:14;;;;;;;4.96;2.50;;;;;;;-1.24;74.31;99486.88;2012419;81;20289;-81
2021/04/09 03:55:16;;;;;;;3.69;2.84;;;;;;;-1.23;74.20;99492.84;2011562;80;20320;-82
2021/04/09 03:58:24;;;;;;;5.01;2.91;;;;;;;-1.20;74.51;99484.47;2009285;80;20417;-81
2021/04/09 04:01:27;;;;;;;4.90;2.35;;;;;;;-1.20;74.51;99482.78;2008390;81;20346;-80
2021/04/09 04:04:28;;;;;;;3.57;2.41;;;;;;;-1.17;74.66;99482.03;2008461;80;20316;-79
2021/04/09 04:07:30;;;;;;;3.34;2.35;;;;;;;-1.17;74.98;99485.47;2009178;81;20232;-79
2021/04/09 04:10:32;;;;;;;3.26;2.86;;;;;;;-1.24;74.84;99479.25;2007449;81;20348;-80
2021/04/09 04:13:33;;;;;;;3.23;2.63;;;;;;;-1.24;74.96;99488.56;2009696;81;20325;-79
2021/04/09 04:16:35;;;;;;;4.72;2.21;;;;;;;-1.24;74.62;99483.47;2008089;78;22133;-79
2021/04/09 04:19:36;;;;;;;4.70;2.76;;;;;;;-1.23;74.84;99475.03;2007804;81;20328;-81
2021/04/09 04:22:38;;;;;;;3.25;2.42;;;;;;;-1.28;74.92;99472.25;2008495;81;20394;-79
2021/04/09 04:25:40;;;;;;;2.86;2.66;;;;;;;-1.30;75.09;99478.94;2005851;80;20342;-79
2021/04/09 04:28:41;;;;;;;4.41;2.22;;;;;;;-1.29;75.04;99478.16;2007569;81;20174;-80
2021/04/09 04:31:43;;;;;;;3.31;2.33;;;;;;;-1.24;74.98;99471.59;2009620;78;21126;-79
2021/04/09 04:34:45;;;;;;;4.35;2.65;;;;;;;-1.25;75.09;99469.00;2013170;79;20365;-78
2021/04/09 04:37:47;;;;;;;3.30;2.67;;;;;;;-1.24;75.31;99463.97;2007680;80;20604;-81
2021/04/09 04:40:49;;;;;;;4.68;3.17;;;;;;;-1.25;75.52;99467.31;2006112;81;20317;-79
2021/04/09 04:43:50;;;;;;;4.51;2.74;;;;;;;-1.20;75.47;99470.06;2005165;80;20362;-79
2021/04/09 04:46:52;;;;;;;3.11;2.90;;;;;;;-1.19;75.43;99469.25;2005963;80;20205;-80
2021/04/09 04:49:55;;;;;;;4.54;3.01;;;;;;;-1.20;75.51;99457.31;2003330;81;20422;-78
2021/04/09 04:52:57;;;;;;;4.32;2.81;;;;;;;-1.17;75.27;99466.75;2004728;81;20361;-81
2021/04/09 04:55:59;;;;;;;4.72;3.21;;;;;;;-1.17;75.03;99449.81;2006630;81;20185;-80
2021/04/09 04:59:00;;;;;;;10.15;3.97;;;;;;;-1.17;74.73;99451.47;2006069;80;20215;-79
2021/04/09 05:02:02;;;;;;;3.61;3.16;;;;;;;-1.18;74.67;99452.28;2004689;78;22238;-79
2021/04/09 05:05:05;;;;;;;5.06;3.42;;;;;;;-1.18;74.61;99453.16;2005517;80;20362;-79
2021/04/09 05:08:06;;;;;;;5.69;3.17;;;;;;;-1.12;74.62;99453.41;2005682;80;20346;-79
2021/04/09 05:11:09;;;;;;;6.19;3.49;;;;;;;-1.09;74.71;99439.91;2006441;81;20311;-79
2021/04/09 05:14:10;;;;;;;2.84;2.45;;;;;;;-1.09;75.34;99440.78;2005719;81;20354;-79
2021/04/09 05:17:12;;;;;;;4.15;2.95;;;;;;;-1.09;75.86;99438.25;2005835;78;23783;-79
2021/04/09 05:20:14;;;;;;;5.47;2.60;;;;;;;-1.04;76.08;99434.22;2005383;81;20346;-79
2021/04/09 05:23:16;;;;;;;2.64;2.40;;;;;;;-1.00;76.50;99437.78;2004837;81;20324;-79
2021/04/09 05:26:18;;;;;;;3.44;2.81;;;;;;;-1.02;77.04;99431.75;2003645;81;21234;-80
2021/04/09 05:29:20;;;;;;;3.53;2.67;;;;;;;-0.98;77.11;99437.03;2006017;81;20344;-79
2021/04/09 05:32:22;;;;;;;4.68;3.00;;;;;;;-0.88;76.87;99435.75;2001591;78;20694;-79
2021/04/09 05:35:25;;;;;;;3.03;2.50;;;;;;;-0.80;76.41;99434.38;2005135;79;20202;-78
2021/04/09 05:38:26;;;;;;;4.46;2.44;;;;;;;-0.74;76.11;99442.25;2004842;80;20358;-80
2021/04/09 05:41:28;;;;;;;6.36;2.95;;;;;;;-0.61;75.80;99438.53;2005924;80;20342;-80
2021/04/09 05:44:33;;;;;;;5.57;2.89;;;;;;;-0.59;75.83;99436.91;2004964;80;20365;-79
2021/04/09 05:47:35;;;;;;;6.20;3.00;;;;;;;-0.56;76.22;99426.84;2005018;78;20324;-79
2021/04/09 05:50:37;;;;;;;5.49;3.13;;;;;;;-0.43;76.34;99431.63;2008817;81;20337;-80
2021/04/09 05:53:39;;;;;;;5.45;3.28;;;;;;;-0.43;76.46;99418.88;2012404;80;20332;-81
2021/04/09 05:56:41;;;;;;;4.61;3.46;;;;;;;-0.38;76.46;99430.13;2007538;80;20316;-80
2021/04/09 05:59:43;;;;;;;6.93;2.89;;;;;;;-0.25;76.45;99428.06;2018186;80;20389;-83
2021/04/09 06:02:44;;;;;;;4.50;2.91;;;;;;;-0.17;76.21;99422.44;2014672;78;20458;-81
2021/04/09 06:05:46;;;;;;;5.45;3.30;;;;;;;-0.05;75.84;99427.13;2009972;81;20305;-80
2021/04/09 06:08:47;;;;;;;6.07;3.11;;;;;;;0.03;75.45;99414.69;2012075;80;20386;-81
2021/04/09 06:11:50;;;;;;;6.43;3.79;;;;;;;0.13;75.48;99424.41;2013143;81;20350;-80
2021/04/09 06:14:52;;;;;;;5.71;3.11;;;;;;;0.29;75.20;99419.91;2013258;81;20378;-80
2021/04/09 06:17:54;;;;;;;5.18;3.04;;;;;;;0.44;74.47;99411.94;2010301;78;21691;-81
2021/04/09 06:20:57;;;;;;;6.18;2.97;;;;;;;0.50;74.27;99414.72;2012130;80;20353;-80
2021/04/09 06:23:59;;;;;;;4.43;3.21;;;;;;;0.63;73.88;99423.69;2011175;81;20328;-80
2021/04/09 06:27:02;;;;;;;5.18;3.58;;;;;;;0.78;73.21;99419.13;2012552;80;20310;-80
2021/04/09 06:30:05;;;;;;;4.75;3.16;;;;;;;0.90;72.46;99421.25;2013246;80;20313;-79
2021/04/09 06:33:06;;;;;;;4.16;2.96;;;;;;;1.09;72.72;99415.94;2010341;78;21044;-80
2021/04/09 06:36:08;;;;;;;5.50;3.17;;;;;;;1.35;72.96;99416.78;2010575;81;20336;-78
2021/04/09 06:39:10;;;;;;;5.60;3.40;;;;;;;1.63;72.40;99415.13;2011864;81;20350;-80
2021/04/09 06:42:14;;;;;;;5.72;3.35;;;;;;;1.93;71.13;99408.34;2012124;81;20346;-80
2021/04/09 06:45:16;;;;;;;7.68;3.69;;;;;;;2.21;70.32;99417.72;2010742;78;20356;-80
2021/04/09 06:48:18;;;;;;;5.29;3.22;;;;;;;2.47;69.89;99410.78;2009291;81;20352;-80
2021/04/09 06:51:20;;;;;;;5.40;3.56;;;;;;;2.86;69.32;99410.97;2007102;81;20313;-77
2021/04/09 06:54:23;;;;;;;5.47;3.30;;;;;;;2.97;68.60;99404.44;2000519;80;20328;-76
2021/04/09 06:57:27;;;;;;;3.69;3.16;;;;;;;3.13;68.57;99402.28;1998972;81;20350;-77
2021/04/09 07:00:32;;;;;;;5.63;3.67;;;;;;;3.41;67.65;99404.72;1997787;80;21800;-75
2021/04/09 07:03:34;;;;;;;6.25;3.66;;;;;;;3.72;66.30;99407.97;1998175;80;20876;-75
2021/04/09 07:06:36;;;;;;;5.65;3.41;;;;;;;4.08;65.28;99411.38;1998297;80;20304;-75
2021/04/09 07:09:40;;;;;;;6.56;3.96;;;;;;;4.32;64.52;99402.47;1998905;80;21155;-76
2021/04/09 07:12:41;;;;;;;5.44;3.21;;;;;;;4.61;64.18;99403.03;1998152;81;20462;-76
2021/04/09 07:15:45;;;;;;;4.68;3.46;;;;;;;4.99;63.42;99401.19;1997445;78;21610;-77
2021/04/09 07:18:51;;;;;;;2.38;2.11;;;;;;;5.37;61.89;99396.69;1999456;81;20348;-78
2021/04/09 07:22:00;;;;;;;5.89;2.80;;;;;;;5.79;58.74;99393.94;1998977;81;20348;-78
2021/04/09 07:25:11;;;;;;;3.41;2.45;;;;;;;5.94;54.34;99388.16;1998807;80;20449;-79
2021/04/09 07:28:19;;;;;;;4.30;2.66;;;;;;;6.21;54.77;99396.25;1999344;81;20752;-81
2021/04/09 07:31:28;;;;;;;7.74;2.24;;;;;;;6.70;53.78;99391.69;2000800;78;20336;-81
2021/04/09 07:34:58;;;;;;;3.16;2.06;;;;;;;7.18;53.39;99386.16;1998762;79;20370;-73
2021/04/09 07:38:00;;;;;;;3.53;2.64;;;;;;;7.53;52.17;99382.97;1998879;80;20190;-72
2021/04/09 07:41:10;;;;;;;3.06;2.47;;;;;;;7.67;51.13;99385.66;1998951;81;20344;-71
2021/04/09 07:44:16;;;;;;;8.23;2.58;;;;;;;7.88;50.37;99386.66;1998162;81;20324;-73
2021/04/09 07:47:18;;;;;;;4.22;2.40;;;;;;;8.19;49.43;99389.44;1998690;78;21091;-72
2021/04/09 07:50:31;;;;;;;5.01;2.15;;;;;;;8.59;49.23;99393.09;1998596;81;20215;-72
2021/04/09 07:53:33;;;;;;;3.60;2.61;;;;;;;8.72;48.21;99394.00;1999238;80;20227;-71
2021/04/09 07:56:49;;;;;;;4.46;2.26;;;;;;;8.96;48.07;99386.28;1999015;81;20536;-72
2021/04/09 07:59:51;;;;;;;6.53;2.72;;;;;;;9.28;48.06;99377.69;1998440;80;21016;-73
2021/04/09 08:02:55;;;;;;;3.59;1.75;;;;;;;9.61;46.60;99380.28;1998131;78;20241;-72
2021/04/09 08:06:20;;;;;;;2.74;1.94;;;;;;;9.89;46.83;99386.31;1998900;81;20186;-72
2021/04/09 08:09:23;;;;;;;4.20;2.44;;;;;;;9.94;46.20;99375.94;1999246;80;20181;-73
2021/04/09 08:12:28;;;;;;;3.66;1.95;;;;;;;10.05;45.11;99381.94;1998987;81;21165;-72
2021/04/09 08:15:33;;;;;;;4.16;2.19;;;;;;;10.33;44.20;99382.75;1998423;80;20666;-72
2021/04/09 08:18:34;;;;;;;8.55;1.59;;;;;;;10.63;43.14;99381.78;1998240;81;20192;-72
2021/04/09 08:21:39;;;;;;;6.56;2.44;;;;;;;10.96;43.60;99374.69;1998922;80;20264;-73
2021/04/09 08:24:41;;;;;;;4.63;1.77;;;;;;;11.16;42.40;99371.06;1998981;80;20173;-72
2021/04/09 08:27:44;;;;;;;4.22;1.99;;;;;;;11.34;42.83;99374.41;1998271;81;20199;-72
2021/04/09 08:30:47;;;;;;;3.45;1.83;;;;;;;11.36;42.46;99367.47;1998591;79;22342;-74
2021/04/09 08:33:49;;;;;;;5.61;2.16;;;;;;;11.61;42.04;99373.31;1998728;80;20207;-73
2021/04/09 08:36:52;;;;;;;5.85;2.04;;;;;;;11.71;41.70;99373.22;2000388;80;20182;-73
2021/04/09 08:40:13;;;;;;;3.55;1.85;;;;;;;11.96;40.94;99370.41;1998732;81;20310;-74
2021/04/09 08:43:15;;;;;;;8.56;1.70;;;;;;;12.12;41.28;99364.16;1998727;80;20235;-73
2021/04/09 08:46:17;;;;;;;4.28;1.89;;;;;;;12.34;40.74;99365.63;1997904;78;20674;-75
2021/04/09 08:49:20;;;;;;;5.35;1.70;;;;;;;12.47;39.79;99368.09;2002334;80;20195;-75
2021/04/09 08:52:24;;;;;;;4.69;2.05;;;;;;;12.63;40.00;99361.81;2000702;81;20964;-73
2021/04/09 08:55:38;;;;;;;4.40;1.92;;;;;;;12.62;38.75;99363.53;2000943;80;20200;-75
2021/04/09 08:58:47;;;;;;;2.19;1.66;;;;;;;12.58;39.16;99363.63;1999935;80;20186;-78
2021/04/09 09:02:12;;;;;;;4.89;1.91;;;;;;;12.75;39.78;99348.63;1999161;78;21020;-79
2021/04/09 09:05:22;;;;;;;5.18;1.80;;;;;;;13.09;39.74;99356.78;2000007;81;20872;-79
2021/04/09 09:08:44;;;;;;;4.24;1.88;;;;;;;13.26;39.82;99356.56;1999409;81;20209;-79
2021/04/09 09:11:50;;;;;;;3.78;2.03;;;;;;;13.52;38.47;99354.41;1998998;80;20251;-78
2021/04/09 09:14:53;;;;;;;3.50;2.16;;;;;;;13.58;37.91;99348.19;1998612;80;20303;-78
2021/04/09 09:17:54;;;;;;;4.54;1.88;;;;;;;13.79;37.33;99347.81;2011658;77;24243;-79
2021/04/09 09:21:24;;;;;;;7.81;1.94;;;;;;;13.98;38.34;99348.34;1999686;80;20190;-79
2021/04/09 09:24:29;;;;;;;3.08;1.98;;;;;;;14.30;37.01;99344.25;1998954;80;20166;-79
2021/04/09 09:27:51;;;;;;;7.60;2.29;;;;;;;14.41;36.74;99343.16;2002572;80;20186;-80
2021/04/09 09:30:56;;;;;;;4.86;2.45;;;;;;;14.35;36.29;99331.94;1999776;78;21336;-80
2021/04/09 09:34:16;;;;;;;5.79;1.98;;;;;;;14.70;36.92;99339.06;1999628;80;20181;-78
2021/04/09 09:37:35;;;;;;;2.89;2.00;;;;;;;14.88;35.96;99319.50;2002644;81;20278;-80
2021/04/09 09:40:42;;;;;;;1.56;1.26;;;;;;;14.95;35.96;99316.72;2001499;80;20285;-80
2021/04/09 09:43:45;;;;;;;4.28;1.61;;;;;;;15.02;35.20;99314.81;2001837;80;20968;-80
2021/04/09 09:46:54;;;;;;;3.41;1.67;;;;;;;15.30;35.67;99317.63;2003766;78;21719;-81
2021/04/09 09:53:06;;;;;;;4.99;1.83;;;;;;;15.71;33.44;99317.47;2005721;81;20272;-81
2021/04/09 09:56:26;;;;;;;3.47;2.03;;;;;;;15.85;33.21;99314.47;2006638;81;20603;-82
2021/04/09 09:59:28;;;;;;;5.80;1.99;;;;;;;15.96;31.30;99316.78;2005247;80;20255;-80
2021/04/09 10:02:30;;;;;;;4.50;1.55;;;;;;;15.95;32.28;99308.06;1999748;79;21865;-79
2021/04/09 10:05:32;;;;;;;4.47;1.81;;;;;;;16.20;32.84;99307.41;2002245;81;20769;-78
2021/04/09 10:08:35;;;;;;;3.01;1.66;;;;;;;16.31;33.12;99308.81;2000807;81;20193;-78
2021/04/09 10:11:44;;;;;;;4.69;1.90;;;;;;;16.21;31.84;99299.50;2000297;80;20611;-78
2021/04/09 10:14:45;;;;;;;5.99;1.69;;;;;;;16.32;31.94;99302.66;2000543;80;20195;-78
2021/04/09 10:18:07;;;;;;;3.21;1.52;;;;;;;16.31;31.70;99297.47;1999209;78;21081;-78
2021/04/09 10:21:15;;;;;;;3.26;1.99;;;;;;;16.46;31.44;99290.91;1999766;81;20178;-79
2021/04/09 10:24:19;;;;;;;4.94;2.01;;;;;;;16.62;32.04;99289.56;1999345;81;20186;-78
2021/04/09 10:27:21;;;;;;;4.91;1.70;;;;;;;16.72;30.58;99287.56;1999896;80;20199;-78
2021/04/09 10:30:30;;;;;;;5.71;1.89;;;;;;;16.69;30.50;99279.75;1998524;79;20177;-78
2021/04/09 10:33:43;;;;;;;4.25;1.71;;;;;;;16.73;30.81;99271.78;1999238;80;20215;-78
2021/04/09 10:36:46;;;;;;;2.84;1.42;;;;;;;16.79;29.67;99266.31;2000166;80;20205;-79
2021/04/09 10:39:48;;;;;;;3.69;1.51;;;;;;;16.91;29.37;99268.56;2000523;80;20211;-78
2021/04/09 10:43:01;;;;;;;5.60;1.81;;;;;;;17.02;29.06;99267.34;1999712;81;20575;-79
2021/04/09 10:46:12;;;;;;;3.33;1.54;;;;;;;17.01;28.63;99258.63;1998649;78;22408;-79
2021/04/09 10:49:17;;;;;;;4.49;1.67;;;;;;;17.06;29.32;99258.50;2000882;80;20730;-79
2021/04/09 10:52:20;;;;;;;3.13;1.60;;;;;;;17.08;28.76;99240.94;1999947;81;20203;-80
2021/04/09 10:55:30;;;;;;;3.99;1.55;;;;;;;17.29;29.58;99245.44;2000751;80;20173;-76
2021/04/09 10:58:34;;;;;;;3.45;1.63;;;;;;;17.36;28.01;99244.31;2000112;81;20716;-77
2021/04/09 11:01:36;;;;;;;4.66;1.64;;;;;;;17.37;27.87;99234.69;1999336;78;22704;-76
2021/04/09 11:04:38;;;;;;;4.84;1.80;;;;;;;17.38;28.35;99239.88;1999427;80;20284;-77
2021/04/09 11:07:47;;;;;;;2.91;1.49;;;;;;;17.76;28.47;99232.44;1999685;81;20396;-77
2021/04/09 11:11:13;;;;;;;3.86;1.60;;;;;;;17.86;28.40;99219.84;1999061;81;20261;-76
2021/04/09 11:14:19;;;;;;;2.53;1.29;;;;;;;17.73;28.99;99208.91;1999494;81;20199;-76
2021/04/09 11:17:28;;;;;;;4.29;1.77;;;;;;;17.67;27.66;99203.88;1997534;78;20186;-77
2021/04/09 11:20:33;;;;;;;4.32;1.56;;;;;;;17.80;28.32;99200.78;1999034;81;20206;-77
2021/04/09 11:23:39;;;;;;;4.85;1.80;;;;;;;17.83;27.70;99198.94;1998616;80;20323;-76
2021/04/09 11:26:41;;;;;;;5.56;1.61;;;;;;;17.96;26.74;99189.69;1998847;81;20624;-76
2021/04/09 11:29:43;;;;;;;7.14;1.84;;;;;;;17.98;26.55;99183.47;1999189;80;20170;-76
2021/04/09 11:32:54;;;;;;;6.89;1.70;;;;;;;17.87;27.50;99190.88;1998038;78;23008;-76
2021/04/09 11:35:55;;;;;;;4.03;1.73;;;;;;;18.12;28.04;99182.91;1998770;80;20229;-76
2021/04/09 11:39:07;;;;;;;3.36;1.83;;;;;;;18.39;28.34;99181.88;1999317;81;21100;-77
2021/04/09 11:42:08;;;;;;;5.72;1.56;;;;;;;18.94;27.41;99173.53;1999517;80;20285;-76
2021/04/09 11:45:14;;;;;;;3.22;1.67;;;;;;;19.28;27.06;99178.22;1999015;80;20768;-76
2021/04/09 11:48:33;;;;;;;4.97;2.35;;;;;;;19.51;25.66;99169.31;2001836;78;22449;-75
2021/04/09 11:51:35;;;;;;;5.91;1.84;;;;;;;18.97;24.86;99161.09;1998775;80;20214;-76
2021/04/09 11:54:39;;;;;;;2.69;1.60;;;;;;;18.62;25.93;99175.69;1998683;80;20346;-76
2021/04/09 11:57:41;;;;;;;6.00;1.70;;;;;;;18.07;26.61;99163.84;1999426;80;20181;-76
2021/04/09 12:00:57;;;;;;;2.90;1.33;;;;;;;17.98;27.18;99165.09;1998151;79;22614;-75
2021/04/09 12:03:59;;;;;;;3.00;2.17;;;;;;;18.00;28.62;99172.91;1999447;80;20170;-76
2021/04/09 12:07:01;;;;;;;6.53;1.96;;;;;;;18.07;28.29;99162.09;2006954;80;20271;-76
2021/04/09 12:10:03;;;;;;;5.68;1.52;;;;;;;18.05;27.49;99174.44;1998691;81;21197;-76
2021/04/09 12:13:05;;;;;;;3.61;1.56;;;;;;;17.97;28.22;99173.88;1999769;80;20182;-77
2021/04/09 12:16:07;;;;;;;6.45;1.69;;;;;;;17.78;29.24;99167.59;2000589;78;21110;-75
2021/04/09 12:19:08;;;;;;;5.39;1.50;;;;;;;17.68;28.95;99161.81;1999397;80;20243;-75
2021/04/09 12:22:11;;;;;;;4.47;1.51;;;;;;;17.51;29.37;99164.19;1999327;80;20186;-76
2021/04/09 12:25:14;;;;;;;5.11;1.51;;;;;;;17.49;29.95;99155.50;1999419;81;20207;-77
2021/04/09 12:28:16;;;;;;;3.06;1.48;;;;;;;17.72;30.20;99154.69;1998654;80;20186;-75
2021/04/09 12:31:18;;;;;;;8.66;1.25;;;;;;;17.92;29.44;99143.41;1997413;78;20455;-77
2021/04/09 12:34:20;;;;;;;7.76;1.39;;;;;;;18.39;29.59;99152.94;2008929;79;20631;-77
2021/04/09 12:37:22;;;;;;;4.20;1.40;;;;;;;18.71;28.72;99137.66;2004811;80;20684;-76
2021/04/09 12:40:23;;;;;;;6.00;1.33;;;;;;;19.05;28.52;99131.00;2005151;80;20693;-77
2021/04/09 12:43:25;;;;;;;2.14;1.10;;;;;;;19.60;27.48;99132.06;2005833;80;20259;-77
2021/04/09 12:46:28;;;;;;;5.38;1.10;;;;;;;19.91;25.38;99142.88;2012493;77;22177;-77
2021/04/09 12:49:30;;;;;;;2.75;1.17;;;;;;;19.61;24.30;99121.47;2024903;79;20261;-77
2021/04/09 12:52:32;;;;;;;7.50;1.13;;;;;;;19.15;25.04;99124.38;2026004;79;20368;-73
2021/04/09 12:55:34;;;;;;;6.75;1.13;;;;;;;19.05;26.59;99121.31;2024489;79;20644;-74
2021/04/09 12:58:35;;;;;;;3.35;1.04;;;;;;;19.23;26.33;99104.72;2025361;79;20204;-74
2021/04/09 13:01:37;;;;;;;5.74;1.17;;;;;;;19.72;26.44;99113.06;2023787;79;20195;-73
2021/04/09 13:04:39;;;;;;;3.63;1.24;;;;;;;19.80;25.87;99100.38;2001718;77;34447;-74
2021/04/09 13:07:41;;;;;;;3.44;1.15;;;;;;;19.82;26.25;99108.22;1998152;81;20186;-74
2021/04/09 13:10:43;;;;;;;4.39;1.36;;;;;;;19.68;25.93;99095.69;1999447;80;20162;-74
2021/04/09 13:16:23;;;;;;;5.09;1.30;;;;;;;19.73;25.83;99098.09;2058405;76;20634;-73
2021/04/09 13:19:25;;;;;;;4.36;1.00;;;;;;;19.52;26.03;99084.09;2045607;79;20229;-73
2021/04/09 13:22:26;;;;;;;2.85;1.06;;;;;;;19.52;27.37;99082.31;2044649;79;20954;-74
2021/04/09 13:25:28;;;;;;;5.26;1.02;;;;;;;19.57;28.05;99076.91;2044375;79;20228;-73
2021/04/09 13:28:30;;;;;;;2.94;1.15;;;;;;;19.75;27.19;99072.53;2044723;79;21055;-73
2021/04/09 13:31:32;;;;;;;4.75;1.05;;;;;;;19.79;27.24;99066.22;2044654;76;25763;-73
2021/04/09 13:34:34;;;;;;;2.92;0.90;;;;;;;19.83;25.62;99057.22;2044300;79;20208;-73
2021/04/09 13:37:36;;;;;;;2.24;1.14;;;;;;;20.12;25.99;99043.53;2045071;79;20192;-75
2021/04/09 13:40:37;;;;;;;3.81;1.01;;;;;;;20.31;24.80;99042.59;2045196;79;20195;-73
2021/04/09 13:43:40;;;;;;;2.97;1.09;;;;;;;20.09;25.39;99046.28;2044894;79;20184;-73
2021/04/09 13:46:42;;;;;;;3.04;1.10;;;;;;;19.89;25.30;99041.97;2043981;76;20248;-73
2021/04/09 13:49:43;;;;;;;3.90;1.08;;;;;;;19.98;25.41;99038.06;2044769;79;20184;-73
2021/04/09 13:52:45;;;;;;;3.84;1.40;;;;;;;20.00;26.71;99036.19;2045361;79;20618;-72
2021/04/09 13:55:47;;;;;;;6.21;1.08;;;;;;;20.23;26.58;99027.16;2045080;79;20188;-74
2021/04/09 13:58:49;;;;;;;3.79;1.39;;;;;;;20.46;25.94;99018.97;2045191;79;20163;-73
2021/04/09 14:01:51;;;;;;;5.25;1.31;;;;;;;20.66;23.67;99020.63;2043882;76;21729;-73
2021/04/09 14:04:53;;;;;;;4.89;1.06;;;;;;;20.60;23.35;99007.72;2044356;79;20683;-73
2021/04/09 14:07:55;;;;;;;7.26;1.38;;;;;;;20.70;23.94;99006.31;2044596;79;20168;-73
2021/04/09 14:10:58;;;;;;;2.78;0.90;;;;;;;20.79;22.18;99004.97;2044422;79;20314;-73
2021/04/09 14:14:00;;;;;;;2.94;1.13;;;;;;;20.93;22.75;99004.25;2044886;79;20164;-75
2021/04/09 14:17:02;;;;;;;3.11;0.90;;;;;;;20.90;22.20;99015.00;2043941;76;23439;-73
2021/04/09 14:20:06;;;;;;;2.39;0.90;;;;;;;20.66;22.52;99010.06;2044820;79;20188;-71
2021/04/09 14:23:08;;;;;;;1.76;1.00;;;;;;;20.55;22.38;99007.13;2045245;79;20493;-76
2021/04/09 14:26:10;;;;;;;2.04;1.10;;;;;;;20.50;21.77;99007.34;2044325;79;20180;-74
2021/04/09 14:29:12;;;;;;;3.61;1.67;;;;;;;20.41;22.16;99005.16;2041169;79;20180;-74
2021/04/09 14:32:14;;;;;;;12.63;1.01;;;;;;;20.43;23.20;98992.75;2040698;76;21332;-74
2021/04/09 14:35:17;;;;;;;2.03;0.91;;;;;;;20.72;23.14;98993.06;2041050;79;20810;-75